ADDS METAR Data INFO
IDs: Format: Raw Decoded Include TAF

Data at: 1319 UTC 19 Jul 2018

KHUL 191253Z AUTO VRB04KT 10SM CLR 18/09 A3002 RMK AO2 SLP167 T01780094
KHUL 191153Z AUTO 00000KT 10SM CLR 16/10 A3002 RMK AO2 SLP167 T01560100 10156 20050 51015
KHUL 191053Z AUTO 00000KT 10SM CLR 12/11 A3001 RMK AO2 SLP164 T01220106
KHUL 190953Z AUTO 00000KT 10SM CLR 06/06 A3000 RMK AO2 SLP161 T00610061
KHUL 190853Z AUTO 00000KT 10SM CLR 07/06 A2998 RMK AO2 SLP153 T00670061 53010
KHUL 190753Z AUTO 00000KT 10SM CLR 06/06 A2996 RMK AO2 SLP148 T00610061
KHUL 190653Z AUTO 00000KT 10SM CLR 08/08 A2995 RMK AO2 SLP144 T00780078
KHUL 190553Z AUTO 00000KT 10SM CLR 08/08 A2995 RMK AO2 SLP142 T00830078 10194 20072 53009
KHUL 190453Z AUTO 00000KT 10SM CLR 09/08 A2993 RMK AO2 SLP137 T00890083 402280078
KHUL 190353Z AUTO 00000KT 10SM CLR 10/09 A2993 RMK AO2 SLP135 T01000094
KHUL 190253Z AUTO 00000KT 10SM CLR 10/10 A2992 RMK AO2 SLP132 T01000100 51019
KHUL 190053Z AUTO 00000KT 10SM CLR 14/12 A2989 RMK AO2 SLP122 T01390117
KHUL 182253Z AUTO 32006KT 10SM CLR 21/09 A2984 RMK AO2 SLP104 T02110089
KHUL 182153Z AUTO 31006KT 10SM CLR 22/10 A2983 RMK AO2 SLP099 T02170100
KHUL 182053Z AUTO 32008KT 10SM CLR 22/11 A2982 RMK AO2 SLP097 T02220111 51007
KHUL 181953Z AUTO 29009KT 10SM SCT055 21/11 A2982 RMK AO2 SLP097 T02110111
KHUL 181853Z AUTO 32010G19KT 10SM BKN050 22/13 A2981 RMK AO2 SLP095 T02220133
KHUL 181753Z AUTO 29009KT 10SM FEW042 OVC055 21/13 A2980 RMK AO2 SLP091 T02110128 10217 20167 51004
KHUL 181653Z AUTO 33010KT 10SM FEW037 OVC047 21/14 A2980 RMK AO2 SLP090 T02110144
KHUL 181553Z AUTO 32008KT 10SM BKN032 BKN040 OVC048 21/14 A2980 RMK AO2 SLP089 T02060144
KHUL 181526Z AUTO 34009G17KT 10SM BKN030 BKN035 21/14 A2980 RMK AO2 T02060139
KHUL 181453Z AUTO 31008KT 10SM OVC024 19/15 A2979 RMK AO2 SLP087 T01940150 50009
KHUL 181427Z AUTO 35010KT 10SM BKN022 20/15 A2979 RMK AO2 T02000150
KHUL 181420Z AUTO 35012KT 10SM SCT020 20/15 A2979 RMK AO2 T02000150
KHUL 181353Z AUTO 35009KT 10SM OVC018 18/15 A2979 RMK AO2 SLP087 T01830150
KHUL 181312Z AUTO 33008KT 10SM OVC015 17/16 A2979 RMK AO2 T01720156
KHUL 181253Z AUTO 34008KT 10SM OVC013 17/16 A2978 RMK AO2 SLP085 T01720156
KHUL 181217Z AUTO 36010KT 10SM SCT014 SCT022 18/16 A2977 RMK AO2 T01830161
KHUL 181153Z AUTO 33008KT 10SM BKN012 OVC020 17/17 A2976 RMK AO2 SLP078 60000 70058 T01720167 10194 20172 53015
KHUL 181132Z AUTO 35008KT 10SM OVC014 17/17 A2976 RMK AO2 T01720167
KHUL 181053Z AUTO 34007KT 9SM BKN018 18/17 A2974 RMK AO2 SLP069 T01780172
KHUL 181048Z AUTO 33006KT 9SM BKN018 18/17 A2974 RMK AO2
KHUL 180953Z AUTO 00000KT 10SM CLR 18/17 A2972 RMK AO2 SLP063 T01780172
KHUL 180853Z AUTO 32005KT 10SM FEW025 FEW032 18/18 A2969 RMK AO2 SLP054 60000 T01830178 53003
KHUL 180831Z AUTO 31003KT 10SM FEW018 FEW023 BKN031 19/18 A2969 RMK AO2 T01890183
KHUL 180824Z AUTO 30005KT 8SM FEW009 BKN023 BKN031 19/19 A2969 RMK AO2 T01890189
KHUL 180813Z AUTO 25003KT 6SM BR FEW009 SCT022 BKN030 18/18 A2968 RMK AO2 T01830183
KHUL 180753Z AUTO 00000KT 8SM FEW009 SCT015 BKN026 19/19 A2967 RMK AO2 RAE0654 SLP047 P0000 T01890189
KHUL 180735Z AUTO 22005KT 8SM SCT006 OVC011 19/19 A2968 RMK AO2 RAE0654 P0000 T01890189
KHUL 180710Z AUTO 21004KT 10SM BKN006 OVC014 19/19 A2967 RMK AO2 RAE0654 CIG 004V011 P0000 T01890189
KHUL 180653Z AUTO 20006KT 10SM -RA SCT009 BKN014 OVC080 19/19 A2968 RMK AO2 SLP049 P0000 T01890189
KHUL 180648Z AUTO 20005KT 10SM -RA SCT009 BKN019 OVC080 19/19 A2968 RMK AO2 P0000
KHUL 180621Z AUTO 20005KT 10SM -RA BKN022 BKN080 OVC110 19/19 A2967 RMK AO2 P0000 T01890189
KHUL 180553Z AUTO 19003KT 7SM -RA FEW090 OVC110 19/19 A2966 RMK AO2 SLP043 P0005 60040 T01890189 10200 20189 58003
KHUL 180505Z AUTO 20004KT 3SM -RA BR FEW042 SCT050 OVC110 19/19 A2967 RMK AO2 LTG DSNT NE AND E P0002 T01940194
KHUL 180457Z AUTO 21005KT 2 1/2SM RA BR SCT040 BKN050 OVC110 19/19 A2967 RMK AO2 LTG DSNT NE AND E P0001 T01940194
KHUL 180453Z AUTO 20005KT 2SM VCTS RA BR FEW011 BKN050 OVC100 19/19 A2967 RMK AO2 LTG DSNT NE AND E TSB15E43 SLP047 P0035 T01940194 402170183
KHUL 180451Z AUTO 21007KT 2SM VCTS RA BR FEW011 BKN043 OVC050 19/19 A2967 RMK AO2 LTG DSNT NE AND E TSB15E43 P0034
KHUL 180443Z AUTO VRB03KT 1 3/4SM VCTS RA BR FEW005 BKN031 OVC041 19/19 A2967 RMK AO2 TSB15E43 P0032 T01940194
KHUL 180439Z AUTO 19004KT 1 3/4SM TSRA BR SCT005 BKN013 OVC037 19/19 A2968 RMK AO2 TSB15 P0031 T01940194
KHUL 180431Z AUTO 22005KT 1SM TSRA BR SCT003 BKN007 OVC037 19/19 A2968 RMK AO2 LTG DSNT SW TSB15 P0029 T01940194
KHUL 180424Z AUTO 23008KT 1/2SM +TSRA FG OVC003 19/19 A2967 RMK AO2 LTG DSNT S AND SW TSB15 P0026 T01940194
KHUL 180416Z AUTO 20005KT 1 1/4SM TSRA BR OVC003 19/19 A2967 RMK AO2 LTG DSNT S AND SW TSB15 P0008 T01940194
KHUL 180407Z AUTO 19004KT 2 1/2SM VCTS -RA BR OVC002 19/19 A2967 RMK AO2 LTG DSNT SW AND W P0001 T01940194
KHUL 180357Z AUTO VRB05KT 1 3/4SM VCTS -RA BR OVC002 19/19 A2967 RMK AO2 LTG DSNT SW AND W P0001 T01940194
KHUL 180353Z AUTO VRB03KT 2SM -RA BR OVC002 19/19 A2967 RMK AO2 LTG DSNT SW AND W RAB43 SLP046 P0000 T01940194
KHUL 180347Z AUTO 18004KT 1 3/4SM -RA BR OVC002 19/19 A2967 RMK AO2 LTG DSNT SW AND W RAB43 P0000
KHUL 180339Z AUTO 20005KT 2SM BR OVC003 19/19 A2968 RMK AO2 LTG DSNT SW-N T01940194
KHUL 180253Z AUTO VRB04KT 3SM BR OVC003 19/19 A2969 RMK AO2 SLP055 T01940194 58006
KHUL 180229Z AUTO 18005KT 4SM BR OVC004 19/19 A2970 RMK AO2 T01940194
KHUL 180208Z AUTO 18005KT 2SM BR OVC004 19/19 A2970 RMK AO2 T01940194
KHUL 180153Z AUTO VRB03KT 3SM BR OVC003 19/19 A2971 RMK AO2 SLP060 T01940194